CDPK1: Cedar Creek Nr Cedar Point, KS

Data processed at Wed May 22 2019 23:50


All information presented herein is the property of the government of the United States of America and may be revised or deleted at any time without prior notice.
Dissemination of this information without the expressed written consent of the Public Affairs Office, Tulsa District U.S. Army Corps of Engineers is strictly prohibited.
These data are gathered electronically and, as presented, have not undergone any form of quality control. These data are not guaranteed to be valid or correct.
Go to home page.
Go to station list.
Go to home page.

Downstream station:


Previous Day
Next Day
Current Day
    
SHEF ID:       CDPK1     CEDAR C NR CEDAR POINT, KS
STATION TYPE:  
Regulating: Stage =    13.00, Flow =     4281

               PRECIP     STAGE  RIV-FLOW  BAT-LOAD
                   in        ft       cfs      volt
              Ccp-Rev   Ccp-Rev   Ccp-Rev   Ccp-Rev
(US/Central)
05/22 00:00      0.00      7.00       883     12.42
05/22 01:00      0.00      6.79       760     12.36
05/22 02:00      0.00      6.63       669     12.36
05/22 03:00      0.00      6.49       596     12.30
05/22 04:00      0.00      6.37       535     12.36
05/22 05:00      0.00      6.26       484     12.30
05/22 06:00      0.00      6.17       444     12.30
05/22 07:00      0.00      6.10       414     12.30
05/22 08:00      0.00      6.04       389     12.30
05/22 09:00      0.00      5.98       366     12.60
05/22 10:00      0.00      5.92       343     13.12
05/22 11:00      0.00      5.89       332     13.77
05/22 12:00      0.00      5.84       314     13.77
05/22 13:00      0.00      5.80       301     13.83
05/22 14:00      0.00      5.76       287     13.77
05/22 15:00      0.00      5.74       280     13.77
05/22 16:00      0.00      5.71       271     13.65
05/22 17:00      0.00      5.66       255     13.53
05/22 18:00      0.00      5.63       246     13.30
05/22 19:00      0.00      5.61       240     12.42
05/22 20:00      0.00      5.59       234     12.42
05/22 21:00      0.00      5.56       225     12.42
05/22 22:00      0.00      5.54       219     12.36
05/22 23:00      0.00      5.52       214     12.36